Aeroporto :
LOGIN :

Iscrizione | Disclaimer

   EN    FR    IT 

 










Sommario :    VFR   VFR Marginale   IFR   IFR Intensivo   IFR Molto Intensivo
Visibilità : 
Base nubi : 
>= 8 km
>= 3000ft
5 / 8 km
1000 / 3000 ft
1500m / 5 km
500 / 1000 ft
800 / 1500m
200 / 500 ft
< 800m
< 200 ft
Simboli :   Temporali  Nebbia  Neve Forte  Precipitazioni Forti  Vento > 20 kt
SIGMETs :   Varie  Temporali  Ghiacco  Turbolenza  Onda orograficha  Ceneri Vulcaniche






- Altitudine del aeroporto : 339 ft
- Codice IATA : UTI


EFUT - Utti Air Base

ULTIMO METAR :
  • 270950Z 29007KT 240V340 CAVOK 21/01 Q1022

METARs OBSOLETI :
  • 270920Z VRB05KT CAVOK 20/M01 Q1022
  • 270850Z VRB05KT CAVOK 21/M01 Q1023
  • 270820Z 31004KT 230V010 CAVOK 20/M01 Q1023
  • 270750Z 28006KT 230V310 CAVOK 21/M01 Q1023
  • 270720Z 28005KT 230V320 CAVOK 20/00 Q1024

TAF TAF EFUT
Valido dal 27 a 09 ore il 27 a 13 ore UTC


270830Z 2709/2713 31004KT CAVOK
BECMG 2710/2712 21010KT



MetMap, La meteo Aeronautica in un colpo d'occhio ! - Copyright ORBIFLY Dicembre 2007 - Disclaimer

ORBIFLY MET'MAP TEAM :

Programmazione e sviluppo : Alexandra Zaïnal
Concezione : Baudouin d'Aumeries
Aiuto per la programmazione : Marc-Olivier Méhu
Supporto tecnico e logistico : Manuel Goepfert
Aiuto per la traduzione : Arnaldo La Scala

Contatto : metmap@orbifly.com




FONTI E CREDITI :

   NOAA